This is the latest recevied weather packets stored in our database for station/object Allmendg2. If no packets are shown the sender has not sent any weather packets the latest 10 day(s).
| Time | Temp. | Humidity | Pressure | Rain* | Wind** | Luminosity | Snow |
|---|---|---|---|---|---|---|---|
| 1777773731 | 12.22° C | 59% | 1016 hPa | 0 mm | - | - | - |
| 1777771931 | 12.22° C | 59% | 1016 hPa | 0 mm | - | - | - |
| 1777770132 | 12.22° C | 59% | 1016 hPa | 0 mm | - | - | - |
| 1777768329 | 12.22° C | 59% | 1016 hPa | 0 mm | - | - | - |
| 1777766530 | 12.22° C | 59% | 1016 hPa | 0 mm | - | - | - |
| 1777764730 | 12.22° C | 59% | 1016 hPa | 0 mm | - | - | - |
| 1777762930 | 12.22° C | 59% | 1016 hPa | 0 mm | - | - | - |
| 1777761131 | 12.22° C | 59% | 1016 hPa | 0 mm | - | - | - |
| 1777759330 | 12.22° C | 59% | 1016 hPa | 0 mm | - | - | - |
| 1777757530 | 12.78° C | 57% | 1015.4 hPa | 0 mm | - | - | - |
| 1777755729 | 13.89° C | 55% | 1015.4 hPa | 0 mm | - | - | - |
| 1777753930 | 14.44° C | 53% | 1015.5 hPa | 0 mm | - | - | - |
| 1777752130 | 15.56° C | 51% | 1015.5 hPa | 0 mm | - | - | - |
| 1777750335 | 16.67° C | 48% | 1015.3 hPa | 0 mm | - | - | - |
| 1777748537 | 17.78° C | 44% | 1015.2 hPa | 0 mm | - | - | - |
| 1777746730 | 19.44° C | 41% | 1015.6 hPa | 0 mm | - | - | - |
| 1777744931 | 21.67° C | 36% | 1015.7 hPa | 0 mm | - | - | - |
| 1777743130 | 23.33° C | 33% | 1015.9 hPa | 0 mm | - | - | - |
| 1777741330 | 23.89° C | 32% | 1015.8 hPa | 0 mm | - | - | - |
| 1777739530 | 23.89° C | 32% | 1017.4 hPa | 0 mm | - | - | - |
| 1777737733 | 24.44° C | 32% | 1017.3 hPa | 0 mm | - | - | - |
| 1777735930 | 24.44° C | 32% | 1017.4 hPa | 0 mm | - | - | - |
| 1777734130 | 24.44° C | 32% | 1017.9 hPa | 0 mm | - | - | - |
| 1777732330 | 24.44° C | 32% | 1018.2 hPa | 0 mm | - | - | - |
| 1777730530 | 24.44° C | 33% | 1018.7 hPa | 0 mm | - | - | - |
* Rain since midnight (hover to see other rain measurements)
** Current wind speed in m/s (hover to see current wind gust speed)